sensor_id;sensor_type;location;lat;lon;timestamp;pressure;altitude;pressure_sealevel;temperature;humidity
59274;BME280;45044;41.572;24.730;2023-04-26T00:00:33;90396.81;;;7.56;100.00
59274;BME280;45044;41.572;24.730;2023-04-26T00:03:00;90384.88;;;7.48;100.00
59274;BME280;45044;41.572;24.730;2023-04-26T00:05:28;90386.00;;;7.43;100.00
59274;BME280;45044;41.572;24.730;2023-04-26T00:07:55;90392.34;;;7.53;100.00
59274;BME280;45044;41.572;24.730;2023-04-26T00:10:22;90387.13;;;7.49;100.00
59274;BME280;45044;41.572;24.730;2023-04-26T00:12:49;90383.72;;;7.56;100.00
59274;BME280;45044;41.572;24.730;2023-04-26T00:15:16;90395.69;;;7.61;100.00
59274;BME280;45044;41.572;24.730;2023-04-26T00:17:43;90378.16;;;7.58;100.00
59274;BME280;45044;41.572;24.730;2023-04-26T00:20:10;90391.22;;;7.61;100.00
59274;BME280;45044;41.572;24.730;2023-04-26T00:22:38;90374.03;;;7.42;100.00
59274;BME280;45044;41.572;24.730;2023-04-26T00:25:06;90378.91;;;7.25;100.00
59274;BME280;45044;41.572;24.730;2023-04-26T00:27:33;90387.50;;;7.22;100.00
59274;BME280;45044;41.572;24.730;2023-04-26T00:30:00;90371.44;;;7.20;100.00
59274;BME280;45044;41.572;24.730;2023-04-26T00:32:27;90375.19;;;7.26;100.00
59274;BME280;45044;41.572;24.730;2023-04-26T00:34:53;90379.66;;;7.37;100.00
59274;BME280;45044;41.572;24.730;2023-04-26T00:37:20;90378.88;;;7.51;100.00
59274;BME280;45044;41.572;24.730;2023-04-26T00:39:47;90372.16;;;7.64;100.00
59274;BME280;45044;41.572;24.730;2023-04-26T00:42:14;90347.88;;;7.46;100.00
59274;BME280;45044;41.572;24.730;2023-04-26T00:44:41;90360.25;;;7.30;100.00
59274;BME280;45044;41.572;24.730;2023-04-26T00:47:08;90346.06;;;7.31;100.00
59274;BME280;45044;41.572;24.730;2023-04-26T00:49:35;90364.34;;;7.42;100.00
59274;BME280;45044;41.572;24.730;2023-04-26T00:52:02;90375.94;;;7.38;100.00
59274;BME280;45044;41.572;24.730;2023-04-26T00:54:29;90362.50;;;7.21;100.00
59274;BME280;45044;41.572;24.730;2023-04-26T00:56:56;90369.94;;;7.41;100.00
59274;BME280;45044;41.572;24.730;2023-04-26T00:59:23;90361.72;;;7.39;100.00
59274;BME280;45044;41.572;24.730;2023-04-26T01:01:49;90369.19;;;7.40;100.00
59274;BME280;45044;41.572;24.730;2023-04-26T01:04:16;90357.28;;;7.28;100.00
59274;BME280;45044;41.572;24.730;2023-04-26T01:06:44;90359.50;;;7.26;100.00
59274;BME280;45044;41.572;24.730;2023-04-26T01:09:12;90354.28;;;7.19;100.00
59274;BME280;45044;41.572;24.730;2023-04-26T01:11:42;90348.31;;;7.15;100.00
59274;BME280;45044;41.572;24.730;2023-04-26T01:14:09;90367.72;;;7.32;100.00
59274;BME280;45044;41.572;24.730;2023-04-26T01:16:37;90353.53;;;7.22;100.00
59274;BME280;45044;41.572;24.730;2023-04-26T01:19:09;90363.25;;;6.89;100.00
59274;BME280;45044;41.572;24.730;2023-04-26T01:21:39;90360.22;;;6.50;100.00
59274;BME280;45044;41.572;24.730;2023-04-26T01:24:08;90376.66;;;6.69;100.00
59274;BME280;45044;41.572;24.730;2023-04-26T01:26:35;90373.66;;;6.52;100.00
59274;BME280;45044;41.572;24.730;2023-04-26T01:29:16;90379.59;;;6.45;100.00
59274;BME280;45044;41.572;24.730;2023-04-26T01:31:44;90382.59;;;6.51;100.00
59274;BME280;45044;41.572;24.730;2023-04-26T01:34:11;90374.00;;;6.54;100.00
59274;BME280;45044;41.572;24.730;2023-04-26T01:36:38;90373.28;;;6.50;100.00
59274;BME280;45044;41.572;24.730;2023-04-26T01:39:05;90376.63;;;6.65;100.00
59274;BME280;45044;41.572;24.730;2023-04-26T01:41:31;90368.47;;;6.74;100.00
59274;BME280;45044;41.572;24.730;2023-04-26T01:43:59;90366.22;;;6.76;100.00
59274;BME280;45044;41.572;24.730;2023-04-26T01:46:26;90365.47;;;6.65;100.00
59274;BME280;45044;41.572;24.730;2023-04-26T01:48:53;90352.75;;;6.38;100.00
59274;BME280;45044;41.572;24.730;2023-04-26T01:51:20;90369.88;;;6.31;100.00
59274;BME280;45044;41.572;24.730;2023-04-26T01:53:47;90362.75;;;6.21;100.00
59274;BME280;45044;41.572;24.730;2023-04-26T01:56:14;90356.78;;;6.24;100.00
59274;BME280;45044;41.572;24.730;2023-04-26T01:58:41;90370.66;;;6.43;100.00
59274;BME280;45044;41.572;24.730;2023-04-26T02:01:08;90377.72;;;6.39;100.00
59274;BME280;45044;41.572;24.730;2023-04-26T02:03:35;90372.03;;;6.11;100.00
59274;BME280;45044;41.572;24.730;2023-04-26T02:06:02;90372.06;;;6.15;100.00
59274;BME280;45044;41.572;24.730;2023-04-26T02:08:29;90376.56;;;6.18;100.00
59274;BME280;45044;41.572;24.730;2023-04-26T02:10:56;90360.53;;;6.23;100.00
59274;BME280;45044;41.572;24.730;2023-04-26T02:13:23;90360.56;;;6.38;100.00
59274;BME280;45044;41.572;24.730;2023-04-26T02:15:50;90363.19;;;6.45;100.00
59274;BME280;45044;41.572;24.730;2023-04-26T02:18:17;90353.84;;;6.40;100.00
59274;BME280;45044;41.572;24.730;2023-04-26T02:20:47;90334.84;;;6.32;100.00
59274;BME280;45044;41.572;24.730;2023-04-26T02:23:14;90339.56;;;6.01;100.00
59274;BME280;45044;41.572;24.730;2023-04-26T02:25:44;90342.88;;;5.98;100.00
59274;BME280;45044;41.572;24.730;2023-04-26T02:28:11;90347.63;;;5.67;100.00
59274;BME280;45044;41.572;24.730;2023-04-26T02:30:38;90331.53;;;5.54;100.00
59274;BME280;45044;41.572;24.730;2023-04-26T02:33:04;90334.91;;;5.54;100.00
59274;BME280;45044;41.572;24.730;2023-04-26T02:35:31;90351.06;;;5.89;100.00
59274;BME280;45044;41.572;24.730;2023-04-26T02:37:58;90339.84;;;5.74;100.00
59274;BME280;45044;41.572;24.730;2023-04-26T02:40:25;90342.09;;;5.83;100.00
59274;BME280;45044;41.572;24.730;2023-04-26T02:42:51;90343.25;;;5.93;100.00
59274;BME280;45044;41.572;24.730;2023-04-26T02:45:18;90343.56;;;5.80;100.00
59274;BME280;45044;41.572;24.730;2023-04-26T02:47:45;90354.69;;;5.66;100.00
59274;BME280;45044;41.572;24.730;2023-04-26T02:50:12;90365.75;;;5.45;100.00
59274;BME280;45044;41.572;24.730;2023-04-26T02:52:39;90356.13;;;5.56;100.00
59274;BME280;45044;41.572;24.730;2023-04-26T02:55:06;90358.69;;;5.49;100.00
59274;BME280;45044;41.572;24.730;2023-04-26T02:57:33;90368.78;;;5.50;100.00
59274;BME280;45044;41.572;24.730;2023-04-26T03:00:00;90356.84;;;5.53;100.00
59274;BME280;45044;41.572;24.730;2023-04-26T03:02:27;90356.16;;;5.63;100.00
59274;BME280;45044;41.572;24.730;2023-04-26T03:04:54;90360.66;;;5.67;100.00
59274;BME280;45044;41.572;24.730;2023-04-26T03:07:21;90359.03;;;5.44;100.00
59274;BME280;45044;41.572;24.730;2023-04-26T03:09:48;90366.38;;;5.23;100.00
59274;BME280;45044;41.572;24.730;2023-04-26T03:12:15;90358.91;;;5.22;100.00
59274;BME280;45044;41.572;24.730;2023-04-26T03:14:42;90364.16;;;5.29;100.00
59274;BME280;45044;41.572;24.730;2023-04-26T03:17:08;90382.16;;;5.49;100.00
59274;BME280;45044;41.572;24.730;2023-04-26T03:19:35;90368.41;;;5.52;100.00
59274;BME280;45044;41.572;24.730;2023-04-26T03:22:02;90369.94;;;5.60;100.00
59274;BME280;45044;41.572;24.730;2023-04-26T03:24:29;90356.13;;;5.56;100.00
59274;BME280;45044;41.572;24.730;2023-04-26T03:26:56;90376.31;;;5.67;100.00
59274;BME280;45044;41.572;24.730;2023-04-26T03:29:23;90378.19;;;5.70;100.00
59274;BME280;45044;41.572;24.730;2023-04-26T03:31:50;90369.53;;;5.58;100.00
59274;BME280;45044;41.572;24.730;2023-04-26T03:34:16;90373.41;;;5.15;100.00
59274;BME280;45044;41.572;24.730;2023-04-26T03:36:43;90375.81;;;4.90;100.00
59274;BME280;45044;41.572;24.730;2023-04-26T03:39:10;90376.03;;;5.19;100.00
59274;BME280;45044;41.572;24.730;2023-04-26T03:41:37;90381.34;;;5.34;100.00
59274;BME280;45044;41.572;24.730;2023-04-26T03:44:06;90382.09;;;5.42;100.00
59274;BME280;45044;41.572;24.730;2023-04-26T03:46:32;90372.44;;;5.42;100.00
59274;BME280;45044;41.572;24.730;2023-04-26T03:48:59;90379.22;;;5.50;100.00
59274;BME280;45044;41.572;24.730;2023-04-26T03:51:26;90388.41;;;5.33;100.00
59274;BME280;45044;41.572;24.730;2023-04-26T03:53:54;90392.03;;;5.18;100.00
59274;BME280;45044;41.572;24.730;2023-04-26T03:56:21;90374.53;;;5.22;100.00
59274;BME280;45044;41.572;24.730;2023-04-26T03:58:48;90387.81;;;5.02;100.00
59274;BME280;45044;41.572;24.730;2023-04-26T04:01:15;90374.38;;;5.00;100.00
59274;BME280;45044;41.572;24.730;2023-04-26T04:03:42;90369.78;;;4.82;100.00
59274;BME280;45044;41.572;24.730;2023-04-26T04:06:09;90369.31;;;4.69;100.00
59274;BME280;45044;41.572;24.730;2023-04-26T04:08:35;90380.53;;;4.77;100.00
59274;BME280;45044;41.572;24.730;2023-04-26T04:11:02;90372.38;;;4.82;100.00
59274;BME280;45044;41.572;24.730;2023-04-26T04:13:29;90373.41;;;5.15;100.00
59274;BME280;45044;41.572;24.730;2023-04-26T04:15:56;90375.38;;;5.37;100.00
59274;BME280;45044;41.572;24.730;2023-04-26T04:18:23;90365.03;;;5.48;100.00
59274;BME280;45044;41.572;24.730;2023-04-26T04:20:49;90362.84;;;5.57;100.00
59274;BME280;45044;41.572;24.730;2023-04-26T04:23:16;90371.88;;;5.78;100.00
59274;BME280;45044;41.572;24.730;2023-04-26T04:25:43;90362.94;;;5.75;100.00
59274;BME280;45044;41.572;24.730;2023-04-26T04:28:11;90357.38;;;5.81;100.00
59274;BME280;45044;41.572;24.730;2023-04-26T04:30:38;90352.19;;;5.88;100.00
59274;BME280;45044;41.572;24.730;2023-04-26T04:33:05;90358.81;;;5.74;100.00
59274;BME280;45044;41.572;24.730;2023-04-26T04:35:32;90354.72;;;5.70;100.00
59274;BME280;45044;41.572;24.730;2023-04-26T04:38:00;90364.78;;;5.75;100.00
59274;BME280;45044;41.572;24.730;2023-04-26T04:40:28;90361.13;;;5.83;100.00
59274;BME280;45044;41.572;24.730;2023-04-26T04:42:55;90357.38;;;5.81;100.00
59274;BME280;45044;41.572;24.730;2023-04-26T04:45:22;90361.44;;;5.78;100.00
59274;BME280;45044;41.572;24.730;2023-04-26T04:47:49;90361.00;;;5.61;100.00
59274;BME280;45044;41.572;24.730;2023-04-26T04:50:15;90360.72;;;5.81;100.00
59274;BME280;45044;41.572;24.730;2023-04-26T04:52:43;90367.09;;;5.95;100.00
59274;BME280;45044;41.572;24.730;2023-04-26T04:55:09;90363.81;;;6.05;100.00
59274;BME280;45044;41.572;24.730;2023-04-26T04:57:36;90350.50;;;6.47;100.00
59274;BME280;45044;41.572;24.730;2023-04-26T05:00:09;90369.44;;;8.80;100.00
59274;BME280;45044;41.572;24.730;2023-04-26T05:02:38;90368.38;;;11.22;100.00
59274;BME280;45044;41.572;24.730;2023-04-26T05:05:05;90340.75;;;12.76;100.00
59274;BME280;45044;41.572;24.730;2023-04-26T05:07:32;90360.75;;;14.20;100.00
59274;BME280;45044;41.572;24.730;2023-04-26T05:10:00;90366.44;;;15.88;100.00
59274;BME280;45044;41.572;24.730;2023-04-26T05:12:26;90358.41;;;17.32;99.93
59274;BME280;45044;41.572;24.730;2023-04-26T05:14:53;90356.41;;;18.59;81.83
59274;BME280;45044;41.572;24.730;2023-04-26T05:17:20;90339.88;;;17.98;79.03
59274;BME280;45044;41.572;24.730;2023-04-26T05:19:47;90330.13;;;18.33;75.39
59274;BME280;45044;41.572;24.730;2023-04-26T05:22:13;90350.03;;;18.65;71.57
59274;BME280;45044;41.572;24.730;2023-04-26T05:24:45;90350.28;;;19.79;64.03
59274;BME280;45044;41.572;24.730;2023-04-26T05:27:13;90362.69;;;20.76;58.27
59274;BME280;45044;41.572;24.730;2023-04-26T05:29:40;90356.97;;;19.98;58.31
59274;BME280;45044;41.572;24.730;2023-04-26T05:32:07;90354.88;;;20.03;58.01
59274;BME280;45044;41.572;24.730;2023-04-26T05:34:34;90350.22;;;20.13;59.17
59274;BME280;45044;41.572;24.730;2023-04-26T05:37:02;90339.28;;;19.86;60.51
59274;BME280;45044;41.572;24.730;2023-04-26T05:39:29;90344.56;;;19.46;60.81
59274;BME280;45044;41.572;24.730;2023-04-26T05:41:56;90340.06;;;19.53;62.47
59274;BME280;45044;41.572;24.730;2023-04-26T05:44:22;90338.31;;;18.72;65.36
59274;BME280;45044;41.572;24.730;2023-04-26T05:46:50;90345.00;;;18.58;67.49
59274;BME280;45044;41.572;24.730;2023-04-26T05:49:16;90347.47;;;20.22;59.04
59274;BME280;45044;41.572;24.730;2023-04-26T05:51:43;90350.25;;;20.28;59.48
59274;BME280;45044;41.572;24.730;2023-04-26T05:54:10;90343.28;;;21.63;53.38
59274;BME280;45044;41.572;24.730;2023-04-26T05:56:37;90340.69;;;22.84;50.48
59274;BME280;45044;41.572;24.730;2023-04-26T05:59:03;90347.06;;;22.93;49.37
59274;BME280;45044;41.572;24.730;2023-04-26T06:01:30;90334.63;;;22.90;48.30
59274;BME280;45044;41.572;24.730;2023-04-26T06:03:57;90326.66;;;23.01;48.55
59274;BME280;45044;41.572;24.730;2023-04-26T06:06:26;90336.09;;;20.52;53.10
59274;BME280;45044;41.572;24.730;2023-04-26T06:08:54;90332.38;;;21.46;53.38
59274;BME280;45044;41.572;24.730;2023-04-26T06:11:21;90336.34;;;20.99;51.17
59274;BME280;45044;41.572;24.730;2023-04-26T06:13:47;90328.53;;;20.96;53.23
59274;BME280;45044;41.572;24.730;2023-04-26T06:16:15;90320.03;;;22.37;47.27
59274;BME280;45044;41.572;24.730;2023-04-26T06:18:42;90325.59;;;20.78;51.71
59274;BME280;45044;41.572;24.730;2023-04-26T06:21:09;90326.00;;;20.92;49.89
59274;BME280;45044;41.572;24.730;2023-04-26T06:23:36;90318.91;;;21.19;47.24
59274;BME280;45044;41.572;24.730;2023-04-26T06:26:03;90310.25;;;21.24;50.50
59274;BME280;45044;41.572;24.730;2023-04-26T06:28:29;90309.00;;;22.03;48.66
59274;BME280;45044;41.572;24.730;2023-04-26T06:30:57;90303.91;;;21.63;47.32
59274;BME280;45044;41.572;24.730;2023-04-26T06:33:24;90312.44;;;21.26;49.37
59274;BME280;45044;41.572;24.730;2023-04-26T06:35:51;90302.94;;;20.58;50.67
59274;BME280;45044;41.572;24.730;2023-04-26T06:38:17;90304.50;;;20.50;51.30
59274;BME280;45044;41.572;24.730;2023-04-26T06:40:44;90286.66;;;20.41;48.74
59274;BME280;45044;41.572;24.730;2023-04-26T06:43:12;90295.66;;;21.82;49.09
59274;BME280;45044;41.572;24.730;2023-04-26T06:45:38;90293.41;;;22.81;47.28
59274;BME280;45044;41.572;24.730;2023-04-26T06:48:08;90302.22;;;22.55;48.24
59274;BME280;45044;41.572;24.730;2023-04-26T06:50:38;90290.56;;;21.42;50.35
59274;BME280;45044;41.572;24.730;2023-04-26T06:53:13;90295.75;;;22.14;48.36
59274;BME280;45044;41.572;24.730;2023-04-26T06:55:39;90289.34;;;22.33;48.27
59274;BME280;45044;41.572;24.730;2023-04-26T06:58:06;90289.66;;;23.99;46.16
59274;BME280;45044;41.572;24.730;2023-04-26T07:00:33;90261.03;;;22.53;48.50
59274;BME280;45044;41.572;24.730;2023-04-26T07:03:00;90291.69;;;21.77;48.81
59274;BME280;45044;41.572;24.730;2023-04-26T07:05:27;90278.88;;;22.88;45.60
59274;BME280;45044;41.572;24.730;2023-04-26T07:07:53;90291.19;;;23.12;48.08
59274;BME280;45044;41.572;24.730;2023-04-26T07:10:20;90294.69;;;23.79;46.27
59274;BME280;45044;41.572;24.730;2023-04-26T07:12:48;90288.53;;;22.80;45.09
59274;BME280;45044;41.572;24.730;2023-04-26T07:15:14;90288.75;;;20.98;48.60
59274;BME280;45044;41.572;24.730;2023-04-26T07:17:41;90298.66;;;21.12;49.06
59274;BME280;45044;41.572;24.730;2023-04-26T07:20:08;90292.13;;;21.13;49.72
59274;BME280;45044;41.572;24.730;2023-04-26T07:22:35;90282.38;;;22.14;49.03
59274;BME280;45044;41.572;24.730;2023-04-26T07:25:02;90294.06;;;20.98;49.14
59274;BME280;45044;41.572;24.730;2023-04-26T07:27:30;90278.59;;;22.86;47.33
59274;BME280;45044;41.572;24.730;2023-04-26T07:29:57;90278.38;;;21.41;47.92
59274;BME280;45044;41.572;24.730;2023-04-26T07:32:24;90281.25;;;21.38;49.80
59274;BME280;45044;41.572;24.730;2023-04-26T07:34:51;90272.59;;;22.97;46.91
59274;BME280;45044;41.572;24.730;2023-04-26T07:37:18;90280.94;;;23.11;42.80
59274;BME280;45044;41.572;24.730;2023-04-26T07:39:45;90273.13;;;22.69;46.79
59274;BME280;45044;41.572;24.730;2023-04-26T07:42:12;90263.81;;;22.32;48.15
59274;BME280;45044;41.572;24.730;2023-04-26T07:44:39;90262.00;;;22.23;45.28
59274;BME280;45044;41.572;24.730;2023-04-26T07:47:12;90270.25;;;21.30;44.84
59274;BME280;45044;41.572;24.730;2023-04-26T07:49:39;90262.09;;;23.37;45.65
59274;BME280;45044;41.572;24.730;2023-04-26T07:52:07;90260.72;;;23.09;46.26
59274;BME280;45044;41.572;24.730;2023-04-26T07:54:34;90256.50;;;22.97;45.26
59274;BME280;45044;41.572;24.730;2023-04-26T07:57:01;90250.94;;;24.40;44.53
59274;BME280;45044;41.572;24.730;2023-04-26T07:59:28;90221.00;;;22.37;44.67
59274;BME280;45044;41.572;24.730;2023-04-26T08:01:55;90248.75;;;24.38;43.85
59274;BME280;45044;41.572;24.730;2023-04-26T08:04:30;90243.63;;;22.36;45.04
59274;BME280;45044;41.572;24.730;2023-04-26T08:07:00;90258.19;;;22.30;44.69
59274;BME280;45044;41.572;24.730;2023-04-26T08:09:28;90249.16;;;22.27;47.43
59274;BME280;45044;41.572;24.730;2023-04-26T08:11:56;90253.47;;;19.72;52.17
59274;BME280;45044;41.572;24.730;2023-04-26T08:14:23;90237.88;;;19.07;59.74
59274;BME280;45044;41.572;24.730;2023-04-26T08:16:50;90243.72;;;17.06;60.88
59274;BME280;45044;41.572;24.730;2023-04-26T08:19:17;90244.91;;;16.63;65.07
59274;BME280;45044;41.572;24.730;2023-04-26T08:21:44;90246.94;;;16.50;77.21
59274;BME280;45044;41.572;24.730;2023-04-26T08:24:11;90252.66;;;16.39;75.45
59274;BME280;45044;41.572;24.730;2023-04-26T08:26:38;90260.81;;;16.22;69.03
59274;BME280;45044;41.572;24.730;2023-04-26T08:29:04;90258.97;;;15.87;76.91
59274;BME280;45044;41.572;24.730;2023-04-26T08:31:31;90263.06;;;14.30;100.00
59274;BME280;45044;41.572;24.730;2023-04-26T08:33:59;90267.66;;;13.99;100.00
59274;BME280;45044;41.572;24.730;2023-04-26T08:36:25;90288.13;;;13.82;100.00
59274;BME280;45044;41.572;24.730;2023-04-26T08:38:53;90273.09;;;13.66;100.00
59274;BME280;45044;41.572;24.730;2023-04-26T08:41:22;90292.19;;;13.24;83.90
59274;BME280;45044;41.572;24.730;2023-04-26T08:43:53;90286.59;;;13.05;75.53
59274;BME280;45044;41.572;24.730;2023-04-26T08:46:22;90293.41;;;13.52;79.78
59274;BME280;45044;41.572;24.730;2023-04-26T08:49:08;90299.84;;;13.51;71.55
59274;BME280;45044;41.572;24.730;2023-04-26T08:51:38;90287.75;;;13.97;65.51
59274;BME280;45044;41.572;24.730;2023-04-26T08:54:05;90301.94;;;14.16;71.88
59274;BME280;45044;41.572;24.730;2023-04-26T08:56:34;90280.78;;;13.90;95.82
59274;BME280;45044;41.572;24.730;2023-04-26T08:59:01;90287.09;;;14.35;97.42
59274;BME280;45044;41.572;24.730;2023-04-26T09:01:28;90298.97;;;14.83;93.83
59274;BME280;45044;41.572;24.730;2023-04-26T09:03:55;90299.03;;;15.18;83.15
59274;BME280;45044;41.572;24.730;2023-04-26T09:06:23;90301.06;;;14.75;87.76
59274;BME280;45044;41.572;24.730;2023-04-26T09:08:52;90309.59;;;14.40;75.80
59274;BME280;45044;41.572;24.730;2023-04-26T09:11:19;90293.34;;;14.55;80.75
59274;BME280;45044;41.572;24.730;2023-04-26T09:13:46;90299.91;;;14.89;88.19
59274;BME280;45044;41.572;24.730;2023-04-26T09:16:13;90296.56;;;15.37;83.82
59274;BME280;45044;41.572;24.730;2023-04-26T09:18:48;90287.94;;;16.04;74.52
59274;BME280;45044;41.572;24.730;2023-04-26T09:21:22;90286.34;;;16.70;63.68
59274;BME280;45044;41.572;24.730;2023-04-26T09:23:59;90265.13;;;16.29;57.88
59274;BME280;45044;41.572;24.730;2023-04-26T09:26:30;90280.06;;;16.77;59.41
59274;BME280;45044;41.572;24.730;2023-04-26T09:29:16;90264.19;;;16.55;62.33
59274;BME280;45044;41.572;24.730;2023-04-26T09:31:48;90274.50;;;16.21;69.87
59274;BME280;45044;41.572;24.730;2023-04-26T09:34:16;90267.53;;;15.91;63.02
59274;BME280;45044;41.572;24.730;2023-04-26T09:37:01;90254.41;;;15.43;56.48
59274;BME280;45044;41.572;24.730;2023-04-26T09:39:38;90226.91;;;14.66;56.05
59274;BME280;45044;41.572;24.730;2023-04-26T09:42:07;90259.81;;;15.39;58.26
59274;BME280;45044;41.572;24.730;2023-04-26T09:44:34;90256.28;;;15.07;60.71
59274;BME280;45044;41.572;24.730;2023-04-26T09:47:08;90256.19;;;15.68;56.00
59274;BME280;45044;41.572;24.730;2023-04-26T09:49:46;90256.16;;;15.11;59.48
59274;BME280;45044;41.572;24.730;2023-04-26T09:52:15;90263.13;;;15.53;73.89
59274;BME280;45044;41.572;24.730;2023-04-26T09:54:47;90241.16;;;16.10;65.41
59274;BME280;45044;41.572;24.730;2023-04-26T09:57:15;90251.78;;;16.42;58.60
59274;BME280;45044;41.572;24.730;2023-04-26T09:59:46;90253.63;;;17.15;62.17
59274;BME280;45044;41.572;24.730;2023-04-26T10:02:15;90260.03;;;16.85;55.83
59274;BME280;45044;41.572;24.730;2023-04-26T10:04:44;90251.19;;;15.13;56.46
59274;BME280;45044;41.572;24.730;2023-04-26T10:07:14;90244.66;;;14.65;58.66
59274;BME280;45044;41.572;24.730;2023-04-26T10:09:46;90243.84;;;14.68;72.30
59274;BME280;45044;41.572;24.730;2023-04-26T10:12:16;90244.03;;;15.36;72.89
59274;BME280;45044;41.572;24.730;2023-04-26T10:14:43;90233.56;;;14.83;68.84
59274;BME280;45044;41.572;24.730;2023-04-26T10:17:12;90245.19;;;14.99;57.92
59274;BME280;45044;41.572;24.730;2023-04-26T10:19:41;90230.50;;;14.59;73.58
59274;BME280;45044;41.572;24.730;2023-04-26T10:22:20;90228.88;;;15.36;80.98
59274;BME280;45044;41.572;24.730;2023-04-26T10:24:48;90234.06;;;15.62;70.57
59274;BME280;45044;41.572;24.730;2023-04-26T10:27:15;90235.00;;;16.13;68.88
59274;BME280;45044;41.572;24.730;2023-04-26T10:35:18;90218.22;;;14.65;89.64
59274;BME280;45044;41.572;24.730;2023-04-26T10:45:38;90216.38;;;13.41;100.00
59274;BME280;45044;41.572;24.730;2023-04-26T10:53:31;90235.22;;;11.89;100.00
59274;BME280;45044;41.572;24.730;2023-04-26T10:55:58;90228.91;;;12.03;100.00
59274;BME280;45044;41.572;24.730;2023-04-26T10:58:29;90224.69;;;12.09;100.00
59274;BME280;45044;41.572;24.730;2023-04-26T11:01:06;90238.66;;;12.06;100.00
59274;BME280;45044;41.572;24.730;2023-04-26T11:03:33;90219.69;;;11.95;100.00
59274;BME280;45044;41.572;24.730;2023-04-26T11:06:05;90235.69;;;11.84;100.00
59274;BME280;45044;41.572;24.730;2023-04-26T11:08:32;90226.06;;;11.77;100.00
59274;BME280;45044;41.572;24.730;2023-04-26T11:13:31;90226.88;;;11.33;100.00
59274;BME280;45044;41.572;24.730;2023-04-26T11:15:59;90241.63;;;11.27;100.00
59274;BME280;45044;41.572;24.730;2023-04-26T11:18:30;90243.03;;;11.11;100.00
59274;BME280;45044;41.572;24.730;2023-04-26T11:20:58;90237.78;;;11.11;100.00
59274;BME280;45044;41.572;24.730;2023-04-26T11:23:27;90249.09;;;11.08;100.00
59274;BME280;45044;41.572;24.730;2023-04-26T11:26:07;90258.38;;;10.69;100.00
59274;BME280;45044;41.572;24.730;2023-04-26T11:28:36;90269.41;;;10.56;100.00
59274;BME280;45044;41.572;24.730;2023-04-26T11:31:05;90265.25;;;10.59;100.00
59274;BME280;45044;41.572;24.730;2023-04-26T11:33:32;90277.16;;;10.39;100.00
59274;BME280;45044;41.572;24.730;2023-04-26T11:36:02;90286.16;;;10.38;100.00
59274;BME280;45044;41.572;24.730;2023-04-26T11:38:29;90270.50;;;10.31;100.00
59274;BME280;45044;41.572;24.730;2023-04-26T11:41:02;90278.09;;;10.53;100.00
59274;BME280;45044;41.572;24.730;2023-04-26T11:46:01;90282.59;;;10.25;100.00
59274;BME280;45044;41.572;24.730;2023-04-26T11:48:29;90278.72;;;10.33;100.00
59274;BME280;45044;41.572;24.730;2023-04-26T11:50:57;90292.16;;;10.39;100.00
59274;BME280;45044;41.572;24.730;2023-04-26T11:56:19;90285.91;;;10.29;100.00
59274;BME280;45044;41.572;24.730;2023-04-26T11:58:48;90291.41;;;10.38;100.00
59274;BME280;45044;41.572;24.730;2023-04-26T12:01:26;90306.69;;;10.47;100.00
59274;BME280;45044;41.572;24.730;2023-04-26T12:03:57;90302.00;;;10.31;100.00
59274;BME280;45044;41.572;24.730;2023-04-26T12:06:40;90303.56;;;9.62;100.00
59274;BME280;45044;41.572;24.730;2023-04-26T12:09:07;90293.72;;;9.35;100.00
59274;BME280;45044;41.572;24.730;2023-04-26T12:11:37;90278.81;;;9.28;100.00
59274;BME280;45044;41.572;24.730;2023-04-26T12:14:04;90279.03;;;9.03;100.00
59274;BME280;45044;41.572;24.730;2023-04-26T12:16:36;90308.84;;;9.20;100.00
59274;BME280;45044;41.572;24.730;2023-04-26T12:19:04;90310.72;;;9.19;100.00
59274;BME280;45044;41.572;24.730;2023-04-26T12:21:43;90310.44;;;8.57;100.00
59274;BME280;45044;41.572;24.730;2023-04-26T12:24:24;90311.50;;;7.95;100.00
59274;BME280;45044;41.572;24.730;2023-04-26T12:26:51;90314.53;;;7.83;100.00
59274;BME280;45044;41.572;24.730;2023-04-26T12:29:18;90309.69;;;7.77;100.00
59274;BME280;45044;41.572;24.730;2023-04-26T12:31:45;90307.09;;;7.74;100.00
59274;BME280;45044;41.572;24.730;2023-04-26T12:34:12;90307.88;;;7.60;100.00
59274;BME280;45044;41.572;24.730;2023-04-26T12:36:40;90316.06;;;7.69;100.00
59274;BME280;45044;41.572;24.730;2023-04-26T12:39:10;90292.28;;;7.34;100.00
59274;BME280;45044;41.572;24.730;2023-04-26T12:41:42;90309.78;;;7.52;100.00
59274;BME280;45044;41.572;24.730;2023-04-26T12:44:10;90318.69;;;7.65;100.00
59274;BME280;45044;41.572;24.730;2023-04-26T12:46:37;90328.41;;;7.76;100.00
59274;BME280;45044;41.572;24.730;2023-04-26T12:49:04;90335.88;;;7.77;100.00
59274;BME280;45044;41.572;24.730;2023-04-26T12:51:31;90346.78;;;7.54;100.00
59274;BME280;45044;41.572;24.730;2023-04-26T12:53:59;90334.03;;;7.56;100.00
59274;BME280;45044;41.572;24.730;2023-04-26T12:56:26;90342.94;;;7.84;100.00
59274;BME280;45044;41.572;24.730;2023-04-26T12:58:53;90347.84;;;7.71;100.00
59274;BME280;45044;41.572;24.730;2023-04-26T13:01:19;90366.94;;;7.61;100.00
59274;BME280;45044;41.572;24.730;2023-04-26T13:03:46;90352.72;;;7.62;100.00
59274;BME280;45044;41.572;24.730;2023-04-26T13:06:13;90346.78;;;7.43;100.00
59274;BME280;45044;41.572;24.730;2023-04-26T13:08:40;90369.16;;;7.59;100.00
59274;BME280;45044;41.572;24.730;2023-04-26T13:11:07;90355.34;;;7.47;100.00
59274;BME280;45044;41.572;24.730;2023-04-26T13:13:34;90362.81;;;7.60;100.00
59274;BME280;45044;41.572;24.730;2023-04-26T13:16:09;90366.19;;;7.57;100.00
59274;BME280;45044;41.572;24.730;2023-04-26T13:18:38;90378.16;;;7.50;100.00